Time;durP1;ratioP1;P1;durP2;ratioP2;P2;SDS_P1;SDS_P2;PMS_P1;PMS_P2;Temp;Humidity;BMP_temperature;BMP_pressure;BME280_temperature;BME280_humidity;BME280_pressure;Samples;Min_cycle;Max_cycle;Signal;HPM_P1;HPM_P2
2022/04/01 00:02:10;;;;;;;19.40;11.38;;;;;;;11.40;44.02;99846.81;4973788;28;20031;-67
2022/04/01 00:04:36;;;;;;;18.42;10.98;;;;;;;11.39;44.03;99838.94;4975322;28;20045;-67
2022/04/01 00:07:02;;;;;;;24.05;12.70;;;;;;;11.39;44.16;99846.97;4975209;28;20392;-68
2022/04/01 00:09:28;;;;;;;22.77;11.55;;;;;;;11.39;44.22;99842.44;4973677;28;20037;-67
2022/04/01 00:11:53;;;;;;;21.75;11.90;;;;;;;11.36;44.10;99836.56;4974957;28;20032;-67
2022/04/01 00:14:18;;;;;;;20.60;12.13;;;;;;;11.39;44.13;99842.44;4973586;28;20031;-67
2022/04/01 00:16:44;;;;;;;19.83;11.68;;;;;;;11.38;44.29;99838.09;4974586;28;20062;-68
2022/04/01 00:19:09;;;;;;;22.98;13.20;;;;;;;11.39;44.32;99836.25;4974875;28;20018;-67
2022/04/01 00:21:35;;;;;;;19.05;10.45;;;;;;;11.39;44.18;99825.53;4974786;28;20035;-67
2022/04/01 00:24:01;;;;;;;20.25;11.40;;;;;;;11.38;44.35;99839.91;4973843;28;20046;-66
2022/04/01 00:26:26;;;;;;;18.48;10.50;;;;;;;11.35;43.99;99846.44;4974922;28;20034;-66
2022/04/01 00:28:52;;;;;;;17.08;10.40;;;;;;;11.36;44.21;99847.28;4974700;28;20038;-67
2022/04/01 00:31:18;;;;;;;21.77;11.90;;;;;;;11.33;44.29;99842.25;4974662;28;20097;-67
2022/04/01 00:33:43;;;;;;;18.77;10.98;;;;;;;11.35;44.47;99850.97;4974803;28;20163;-68
2022/04/01 00:36:09;;;;;;;17.08;10.52;;;;;;;11.33;44.22;99856.50;4974723;28;20112;-68
2022/04/01 00:38:34;;;;;;;15.05;9.30;;;;;;;11.29;44.50;99846.22;4974529;28;20053;-68
2022/04/01 00:40:59;;;;;;;15.57;9.73;;;;;;;11.23;44.52;99852.22;4973194;28;20154;-67
2022/04/01 00:43:34;;;;;;;15.35;8.55;;;;;;;11.22;44.26;99856.75;4974630;28;20162;-67
2022/04/01 00:45:59;;;;;;;17.15;9.23;;;;;;;11.22;44.24;99855.91;4973684;28;20042;-66
2022/04/01 00:48:26;;;;;;;14.82;8.98;;;;;;;11.22;44.41;99863.94;4974650;28;20473;-67
2022/04/01 00:50:52;;;;;;;15.07;9.25;;;;;;;11.20;44.51;99860.56;4973368;28;20069;-67
2022/04/01 00:53:17;;;;;;;15.07;9.52;;;;;;;11.16;44.83;99856.53;4974197;28;20074;-67
2022/04/01 00:55:43;;;;;;;16.35;9.00;;;;;;;11.17;44.86;99850.19;4974384;28;20046;-67
2022/04/01 00:58:09;;;;;;;15.88;9.15;;;;;;;11.18;44.87;99852.69;4976014;28;20094;-67
2022/04/01 01:00:36;;;;;;;15.05;9.00;;;;;;;11.21;43.90;99862.25;4977069;28;20528;-67
2022/04/01 01:03:03;;;;;;;18.30;10.27;;;;;;;11.19;44.25;99859.75;4978199;28;20067;-67
2022/04/01 01:05:30;;;;;;;16.30;9.95;;;;;;;11.21;44.24;99859.56;4978249;28;20034;-67
2022/04/01 01:07:57;;;;;;;18.42;10.43;;;;;;;11.22;44.29;99863.94;4978173;28;20022;-67
2022/04/01 01:10:22;;;;;;;14.98;8.90;;;;;;;11.21;44.24;99862.25;4978350;28;20031;-67
2022/04/01 01:12:48;;;;;;;18.17;10.77;;;;;;;11.21;44.46;99870.28;4977045;28;20037;-66
2022/04/01 01:15:18;;;;;;;16.42;10.20;;;;;;;11.18;44.41;99859.88;4976868;28;20477;-68
2022/04/01 01:17:46;;;;;;;17.33;10.40;;;;;;;11.18;43.94;99867.94;4978154;28;20503;-67
2022/04/01 01:20:15;;;;;;;14.10;8.75;;;;;;;11.14;44.57;99871.94;4960550;28;20023;-67
2022/04/01 01:22:42;;;;;;;16.45;9.90;;;;;;;11.13;44.50;99872.91;4976846;28;20110;-67
2022/04/01 01:25:09;;;;;;;17.40;11.68;;;;;;;11.14;44.13;99878.09;4978032;28;20102;-67
2022/04/01 01:27:35;;;;;;;21.00;10.57;;;;;;;11.14;44.80;99869.25;4977914;28;20384;-67
2022/04/01 01:30:02;;;;;;;18.52;11.23;;;;;;;11.15;44.25;99873.59;4977994;28;20039;-66
2022/04/01 01:32:29;;;;;;;20.33;10.82;;;;;;;11.16;44.91;99872.59;4976653;28;20038;-67
2022/04/01 01:34:55;;;;;;;20.25;11.38;;;;;;;11.16;44.50;99880.66;4977663;28;20065;-67
2022/04/01 01:37:20;;;;;;;21.23;10.80;;;;;;;11.18;44.05;99881.31;4977956;28;20027;-67
2022/04/01 01:39:46;;;;;;;21.23;11.52;;;;;;;11.17;44.81;99879.66;4977522;28;20037;-67
2022/04/01 01:42:11;;;;;;;17.70;10.68;;;;;;;11.16;44.18;99880.66;4977665;28;20396;-67
2022/04/01 01:44:36;;;;;;;19.80;10.43;;;;;;;11.15;44.77;99876.28;4977455;28;20183;-67
2022/04/01 01:47:03;;;;;;;16.15;10.30;;;;;;;11.15;44.82;99876.28;4977406;28;20034;-67
2022/04/01 01:49:28;;;;;;;17.30;10.15;;;;;;;11.16;44.56;99883.34;4977617;28;20396;-67
2022/04/01 01:54:44;;;;;;;17.05;9.93;;;;;;;11.12;44.46;99882.78;4975455;28;20408;-67
2022/04/01 01:57:11;;;;;;;17.90;11.60;;;;;;;11.13;44.54;99884.50;4975387;28;20392;-67
2022/04/01 01:59:36;;;;;;;19.00;10.25;;;;;;;11.14;44.65;99890.69;4976232;28;20069;-67
2022/04/01 02:02:05;;;;;;;21.75;11.52;;;;;;;11.12;44.24;99888.16;4976349;28;20500;-67
2022/04/01 02:04:32;;;;;;;18.05;11.00;;;;;;;11.13;44.56;99894.34;4976449;28;20030;-67
2022/04/01 02:06:58;;;;;;;18.45;10.48;;;;;;;11.11;44.18;99892.66;4976108;28;20393;-67
2022/04/01 02:09:23;;;;;;;17.05;10.63;;;;;;;11.11;43.38;99892.66;4974281;28;20439;-67
2022/04/01 02:11:49;;;;;;;15.50;9.45;;;;;;;11.04;44.47;99891.63;4975948;28;20110;-67
2022/04/01 02:14:14;;;;;;;14.88;10.32;;;;;;;10.99;44.00;99893.94;4975970;28;20080;-67
2022/04/01 02:16:43;;;;;;;16.45;10.30;;;;;;;10.93;44.95;99896.38;4976066;28;20035;-67
2022/04/01 02:19:09;;;;;;;16.13;10.25;;;;;;;10.89;44.69;99890.47;4975646;28;20200;-66
2022/04/01 02:21:35;;;;;;;15.75;9.00;;;;;;;10.87;44.78;99895.16;4974660;28;20035;-67
2022/04/01 02:24:00;;;;;;;17.23;9.75;;;;;;;10.84;45.08;99900.81;4974528;28;20027;-67
2022/04/01 02:26:25;;;;;;;14.93;9.35;;;;;;;10.84;44.12;99908.84;4975781;28;20109;-66
2022/04/01 02:28:51;;;;;;;12.27;9.07;;;;;;;10.83;44.47;99909.03;4975962;28;20035;-67
2022/04/01 02:31:18;;;;;;;13.15;8.50;;;;;;;10.78;44.01;99912.13;4975997;28;20031;-67
2022/04/01 02:33:44;;;;;;;14.38;8.90;;;;;;;10.76;44.35;99914.13;4975530;28;20034;-67
2022/04/01 02:36:12;;;;;;;15.20;9.27;;;;;;;10.76;45.01;99916.81;4975866;28;20038;-67
2022/04/01 02:38:40;;;;;;;13.77;9.15;;;;;;;10.73;44.73;99917.13;4975441;28;20038;-67
2022/04/01 02:41:06;;;;;;;18.17;10.88;;;;;;;10.69;44.43;99915.72;4974266;28;20038;-68
2022/04/01 02:43:32;;;;;;;13.98;9.68;;;;;;;10.69;44.51;99918.41;4975575;28;20077;-66
2022/04/01 02:45:58;;;;;;;13.68;9.30;;;;;;;10.67;44.65;99925.75;4975330;28;20039;-67
2022/04/01 02:48:23;;;;;;;16.83;9.82;;;;;;;10.66;44.82;99926.78;4975234;28;20042;-67
2022/04/01 02:50:49;;;;;;;18.55;9.75;;;;;;;10.62;44.76;99925.38;4975212;28;20027;-67
2022/04/01 02:53:16;;;;;;;16.67;10.40;;;;;;;10.65;44.69;99929.59;4935067;28;1188386;-67
2022/04/01 02:55:42;;;;;;;17.88;10.63;;;;;;;10.62;44.72;99932.56;4976191;28;20114;-68
2022/04/01 02:58:08;;;;;;;16.52;9.68;;;;;;;10.60;44.73;99934.56;4975129;28;20097;-66
2022/04/01 03:00:40;;;;;;;17.55;10.32;;;;;;;10.60;45.14;99939.91;4974796;28;20031;-67
2022/04/01 03:03:07;;;;;;;16.48;10.45;;;;;;;10.58;44.38;99937.38;4976166;28;20472;-66
2022/04/01 03:05:37;;;;;;;21.40;10.77;;;;;;;10.55;44.96;99936.84;4976153;28;20487;-67
2022/04/01 03:08:05;;;;;;;19.60;9.27;;;;;;;10.56;44.46;99934.00;4976011;28;20157;-67
2022/04/01 03:10:31;;;;;;;14.63;9.05;;;;;;;10.54;44.89;99941.34;4975976;28;20472;-66
2022/04/01 03:12:57;;;;;;;13.88;8.85;;;;;;;10.55;44.87;99936.84;4974739;28;20108;-67
2022/04/01 03:15:24;;;;;;;16.25;8.68;;;;;;;10.53;44.65;99945.00;4974649;28;20484;-67
2022/04/01 03:17:49;;;;;;;15.70;8.50;;;;;;;10.51;43.96;99944.34;4974969;28;20507;-67
2022/04/01 03:20:15;;;;;;;13.40;7.78;;;;;;;10.46;44.29;99960.00;4974880;28;20027;-67
2022/04/01 03:22:41;;;;;;;11.68;8.40;;;;;;;10.43;44.99;99954.94;4975883;28;20035;-67
2022/04/01 03:25:09;;;;;;;14.52;8.95;;;;;;;10.38;44.42;99958.09;4958522;28;20033;-67
2022/04/01 03:27:35;;;;;;;15.75;8.45;;;;;;;10.35;44.24;99963.75;4974448;28;20031;-67
2022/04/01 03:30:00;;;;;;;11.63;7.97;;;;;;;10.30;44.93;99959.81;4975536;28;20501;-67
2022/04/01 03:32:26;;;;;;;17.55;9.02;;;;;;;10.26;44.36;99966.44;4975594;28;20062;-67
2022/04/01 03:34:51;;;;;;;12.27;8.90;;;;;;;10.26;44.43;99969.13;4974463;28;20080;-67
2022/04/01 03:37:17;;;;;;;11.48;6.78;;;;;;;10.21;44.86;99966.06;4975444;28;20447;-67
2022/04/01 03:39:43;;;;;;;11.30;7.03;;;;;;;10.20;44.51;99983.09;4975097;28;20034;-67
2022/04/01 03:42:08;;;;;;;16.20;8.93;;;;;;;10.17;44.25;99970.00;4975252;28;20031;-67
2022/04/01 03:44:36;;;;;;;14.40;7.38;;;;;;;10.18;44.50;99971.72;4975629;28;20053;-67
2022/04/01 03:47:11;;;;;;;10.20;7.10;;;;;;;10.17;44.41;99986.06;4975534;28;20117;-66
2022/04/01 03:49:46;;;;;;;10.70;6.97;;;;;;;10.15;44.21;99974.69;4974070;28;20035;-67
2022/04/01 03:52:12;;;;;;;11.82;7.25;;;;;;;10.10;44.55;99974.25;4973883;28;20511;-67
2022/04/01 03:54:40;;;;;;;14.90;8.10;;;;;;;10.08;45.30;99981.59;4974059;28;20046;-66
2022/04/01 03:57:07;;;;;;;13.13;8.43;;;;;;;10.08;44.52;99981.59;4957871;28;20037;-67
2022/04/01 03:59:40;;;;;;;13.60;8.20;;;;;;;10.08;44.57;99986.94;4975144;28;20030;-67
2022/04/01 04:02:13;;;;;;;13.50;8.63;;;;;;;10.03;44.40;99994.53;4974113;28;20050;-67
2022/04/01 04:04:39;;;;;;;14.10;8.80;;;;;;;10.01;45.32;99993.84;4974892;28;20070;-67
2022/04/01 04:07:08;;;;;;;15.48;8.85;;;;;;;9.99;44.27;99996.69;4974976;28;20034;-67
2022/04/01 04:09:37;;;;;;;13.75;8.07;;;;;;;10.00;44.79;99995.66;4975133;28;20050;-67
2022/04/01 04:12:03;;;;;;;15.00;8.13;;;;;;;9.98;44.87;100004.84;4974823;28;20045;-67
2022/04/01 04:14:29;;;;;;;14.73;7.68;;;;;;;9.97;44.27;100006.66;4973700;28;20082;-67
2022/04/01 04:16:56;;;;;;;14.80;8.43;;;;;;;9.92;44.93;100004.44;4974770;28;20037;-67
2022/04/01 04:19:30;;;;;;;14.23;8.60;;;;;;;9.90;44.71;100019.78;4973316;28;20027;-67
2022/04/01 04:22:03;;;;;;;14.98;8.82;;;;;;;9.86;44.57;100017.53;4973637;28;20424;-67
2022/04/01 04:24:30;;;;;;;12.80;7.72;;;;;;;9.83;44.78;100015.16;4974693;28;20074;-67
2022/04/01 04:27:10;;;;;;;10.30;7.22;;;;;;;9.80;44.43;100021.63;4973513;28;20073;-67
2022/04/01 04:29:44;;;;;;;15.68;7.22;;;;;;;9.80;44.92;100035.00;4973550;28;20023;-66
2022/04/01 04:32:34;;;;;;;13.65;8.18;;;;;;;9.83;44.15;100036.53;4973462;28;20492;-67
2022/04/01 04:35:04;;;;;;;13.50;8.23;;;;;;;9.84;44.78;100033.75;4974199;28;20038;-67
2022/04/01 04:37:33;;;;;;;11.90;8.13;;;;;;;9.91;44.53;100044.69;4974932;28;20070;-66
2022/04/01 04:39:59;;;;;;;13.15;7.97;;;;;;;9.91;44.79;100045.53;4973225;28;20041;-67
2022/04/01 04:42:26;;;;;;;11.82;7.53;;;;;;;9.94;44.15;100050.59;4974375;28;20135;-67
2022/04/01 04:44:52;;;;;;;12.93;7.88;;;;;;;9.99;44.00;100052.00;4973295;28;20030;-67
2022/04/01 04:47:25;;;;;;;12.32;8.30;;;;;;;10.00;44.43;100059.88;4974521;28;20031;-66
2022/04/01 04:49:53;;;;;;;10.50;7.65;;;;;;;9.99;45.09;100057.38;4974736;28;20037;-67
2022/04/01 04:52:19;;;;;;;14.50;8.32;;;;;;;10.02;44.16;100060.59;4973079;28;20034;-67
2022/04/01 04:54:45;;;;;;;10.98;7.82;;;;;;;10.02;44.24;100067.78;4973302;28;20023;-67
2022/04/01 04:57:11;;;;;;;12.18;7.63;;;;;;;10.04;44.61;100065.78;4957085;28;20031;-67
2022/04/01 04:59:41;;;;;;;13.70;8.00;;;;;;;10.05;44.25;100072.84;4974208;28;20030;-67
2022/04/01 05:02:10;;;;;;;10.52;7.30;;;;;;;10.09;44.55;100072.41;4973232;28;20037;-67
2022/04/01 05:05:06;;;;;;;11.73;7.63;;;;;;;10.08;44.58;100078.72;4973153;28;20023;-67
2022/04/01 05:07:56;;;;;;;11.18;6.68;;;;;;;10.06;44.60;100087.88;4974182;28;20019;-67
2022/04/01 05:10:38;;;;;;;10.50;7.00;;;;;;;10.01;44.83;100092.84;4974244;28;20065;-67
2022/04/01 05:13:11;;;;;;;13.50;8.00;;;;;;;10.01;44.55;100103.53;4973070;28;20391;-67
2022/04/01 05:15:40;;;;;;;14.90;7.40;;;;;;;9.97;44.71;100110.19;4973020;28;20029;-67
2022/04/01 05:18:14;;;;;;;13.18;7.35;;;;;;;9.93;44.09;100107.78;4973138;28;20110;-67
2022/04/01 05:20:49;;;;;;;10.65;6.40;;;;;;;9.95;44.65;100121.84;4957141;28;20089;-67
2022/04/01 05:23:19;;;;;;;12.50;6.97;;;;;;;9.93;44.52;100120.31;4973113;28;20033;-67
2022/04/01 05:25:48;;;;;;;12.70;7.43;;;;;;;9.93;44.63;100125.66;4973089;28;20034;-67
2022/04/01 05:28:21;;;;;;;12.68;7.22;;;;;;;9.90;44.68;100129.47;4974180;28;20053;-67
2022/04/01 05:31:08;;;;;;;16.50;6.90;;;;;;;9.90;44.63;100134.81;4974209;28;20026;-68
2022/04/01 05:34:00;;;;;;;9.63;6.57;;;;;;;9.84;44.09;100140.72;4973949;28;20023;-68
2022/04/01 05:36:26;;;;;;;11.77;6.70;;;;;;;9.84;44.78;100156.78;4972242;28;20520;-68
2022/04/01 05:38:52;;;;;;;8.73;6.00;;;;;;;9.81;44.93;100149.03;4974048;28;20069;-69
2022/04/01 05:41:20;;;;;;;10.35;6.78;;;;;;;9.78;44.58;100151.97;4940801;28;20070;-68
2022/04/01 05:43:47;;;;;;;11.10;6.05;;;;;;;9.80;44.58;100160.69;4974884;28;20373;-68
2022/04/01 05:46:14;;;;;;;8.70;6.10;;;;;;;9.82;43.86;100164.09;4976296;28;20037;-69
2022/04/01 05:48:40;;;;;;;9.75;6.50;;;;;;;9.81;44.25;100167.75;4976298;28;20093;-68
2022/04/01 05:51:05;;;;;;;10.95;6.32;;;;;;;9.84;44.26;100172.81;4977633;28;20058;-68
2022/04/01 05:53:32;;;;;;;11.65;7.55;;;;;;;9.83;44.98;100170.28;4977339;28;20158;-67
2022/04/01 05:55:59;;;;;;;11.73;6.43;;;;;;;9.80;44.48;100175.91;4976091;28;20408;-67
2022/04/01 05:58:24;;;;;;;10.48;6.43;;;;;;;9.78;44.81;100183.22;4976397;28;20034;-67
2022/04/01 06:01:07;;;;;;;12.48;7.30;;;;;;;9.78;44.86;100173.38;4976321;28;20060;-68
2022/04/01 06:03:35;;;;;;;12.87;7.70;;;;;;;9.80;43.83;100179.41;4976129;28;20033;-68
2022/04/01 06:06:09;;;;;;;11.38;7.03;;;;;;;9.79;44.39;100180.44;4975918;28;20027;-66
2022/04/01 06:08:56;;;;;;;11.90;7.03;;;;;;;9.81;44.11;100189.16;4977108;28;20039;-67
2022/04/01 06:11:41;;;;;;;12.35;7.50;;;;;;;9.82;44.92;100198.88;4977194;28;20097;-67
2022/04/01 06:14:44;;;;;;;9.90;6.93;;;;;;;9.84;43.74;100204.91;4959717;28;20061;-68
2022/04/01 06:17:15;;;;;;;9.15;6.00;;;;;;;9.81;44.46;100202.53;4977069;28;20105;-68
2022/04/01 06:19:44;;;;;;;10.25;6.13;;;;;;;9.79;44.85;100201.81;4977111;28;20030;-67
2022/04/01 06:22:14;;;;;;;9.65;5.68;;;;;;;9.78;43.97;100209.97;4976159;28;20391;-67
2022/04/01 06:24:57;;;;;;;7.75;4.88;;;;;;;9.76;44.05;100220.81;4975602;28;20034;-68
2022/04/01 06:27:28;;;;;;;8.10;6.07;;;;;;;9.78;44.77;100216.16;4976978;28;20521;-67
2022/04/01 06:30:17;;;;;;;9.43;6.10;;;;;;;9.76;43.93;100228.00;4976886;28;20027;-67
2022/04/01 06:32:52;;;;;;;9.00;6.05;;;;;;;9.80;44.49;100234.75;4963878;28;20039;-68
2022/04/01 06:35:31;;;;;;;11.50;5.88;;;;;;;9.82;43.71;100235.47;4976752;28;20105;-68
2022/04/01 06:38:02;;;;;;;9.13;5.43;;;;;;;9.86;43.92;100245.72;4975446;28;20051;-68
2022/04/01 06:40:32;;;;;;;8.07;4.28;;;;;;;9.88;43.72;100254.47;4975267;28;20518;-68
2022/04/01 06:42:58;;;;;;;8.13;5.13;;;;;;;9.89;43.59;100250.81;4959256;28;20400;-67
2022/04/01 06:45:24;;;;;;;7.55;5.07;;;;;;;9.91;44.18;100256.00;4975698;28;20031;-68
2022/04/01 06:47:49;;;;;;;9.70;5.80;;;;;;;9.91;44.21;100248.84;4975324;28;20492;-67
2022/04/01 06:50:16;;;;;;;8.23;4.85;;;;;;;9.95;43.86;100270.81;4976448;28;20031;-68
2022/04/01 06:52:42;;;;;;;8.13;5.47;;;;;;;9.97;44.26;100273.38;4976159;28;20070;-68
2022/04/01 06:55:08;;;;;;;8.70;4.85;;;;;;;9.99;44.07;100269.56;4974062;28;20502;-68
2022/04/01 06:57:34;;;;;;;9.57;5.80;;;;;;;10.03;43.63;100278.13;4974976;28;20098;-67
2022/04/01 06:59:59;;;;;;;7.10;5.00;;;;;;;10.08;43.47;100271.38;4976198;28;20054;-68
2022/04/01 07:02:25;;;;;;;9.07;5.18;;;;;;;10.12;44.47;100272.81;4974812;28;20025;-68
2022/04/01 07:04:50;;;;;;;7.28;5.03;;;;;;;10.13;43.55;100287.91;4974888;28;20034;-68
2022/04/01 07:07:15;;;;;;;6.82;4.30;;;;;;;10.14;43.65;100286.06;4976136;28;20473;-68
2022/04/01 07:09:41;;;;;;;6.57;3.63;;;;;;;10.14;43.32;100296.75;4974967;28;20496;-67
2022/04/01 07:12:07;;;;;;;6.30;4.13;;;;;;;10.12;44.31;100298.72;4976025;28;20101;-67
2022/04/01 07:14:32;;;;;;;8.52;4.10;;;;;;;10.14;43.02;100299.44;4976022;28;20488;-68
2022/04/01 07:16:58;;;;;;;6.30;3.95;;;;;;;10.17;44.18;100307.19;4974750;28;20033;-68
2022/04/01 07:19:24;;;;;;;7.78;4.70;;;;;;;10.20;43.47;100301.56;4958540;28;20484;-68
2022/04/01 07:21:49;;;;;;;7.10;3.92;;;;;;;10.19;43.31;100308.75;4974687;28;20037;-68
2022/04/01 07:24:15;;;;;;;8.85;4.68;;;;;;;10.21;44.07;100313.97;4975820;28;20027;-67
2022/04/01 07:26:41;;;;;;;7.90;5.25;;;;;;;10.21;44.13;100309.47;4974511;28;20026;-68
2022/04/01 07:29:06;;;;;;;7.30;4.20;;;;;;;10.23;43.37;100312.00;4958587;28;20026;-67
2022/04/01 07:34:25;;;;;;;5.43;3.58;;;;;;;10.23;43.69;100322.69;4974895;28;20038;-68
2022/04/01 07:36:50;;;;;;;5.45;3.30;;;;;;;10.22;42.95;100327.19;4975548;28;20039;-68
2022/04/01 07:39:16;;;;;;;5.65;3.38;;;;;;;10.20;43.59;100328.31;4974274;28;20082;-68
2022/04/01 07:41:41;;;;;;;5.22;3.60;;;;;;;10.25;43.36;100336.78;4974330;28;20029;-67
2022/04/01 07:44:07;;;;;;;6.40;3.78;;;;;;;10.27;43.79;100334.84;4975334;28;20034;-67
2022/04/01 07:46:32;;;;;;;10.80;4.07;;;;;;;10.30;43.62;100346.09;4974165;28;20037;-68
2022/04/01 07:48:58;;;;;;;5.72;3.28;;;;;;;10.29;43.54;100348.91;4974090;28;20066;-67
2022/04/01 07:51:24;;;;;;;5.43;3.88;;;;;;;10.27;44.03;100346.34;4958107;28;20374;-68
2022/04/01 07:53:49;;;;;;;6.40;3.60;;;;;;;10.29;42.96;100362.28;4957808;28;20054;-68
2022/04/01 07:56:15;;;;;;;5.60;3.55;;;;;;;10.28;42.80;100360.59;4975326;28;20089;-68
2022/04/01 07:58:40;;;;;;;3.67;2.80;;;;;;;10.27;43.19;100366.94;4975246;28;20026;-68
2022/04/01 08:01:05;;;;;;;4.53;2.55;;;;;;;10.23;43.00;100371.72;4975205;28;20031;-67
2022/04/01 08:03:31;;;;;;;4.65;3.05;;;;;;;10.25;42.69;100374.25;4975239;28;20022;-67
2022/04/01 08:05:58;;;;;;;5.43;3.10;;;;;;;10.26;42.84;100375.94;4974693;28;20081;-67
2022/04/01 08:08:23;;;;;;;7.90;3.83;;;;;;;10.27;42.87;100383.84;4974931;28;20473;-69
2022/04/01 08:10:49;;;;;;;4.85;2.90;;;;;;;10.32;43.13;100380.75;4957574;28;20131;-67
2022/04/01 08:13:14;;;;;;;5.20;2.90;;;;;;;10.36;42.99;100387.50;4975129;28;20035;-68
2022/04/01 08:15:40;;;;;;;6.90;3.13;;;;;;;10.37;43.39;100384.72;4973675;28;20031;-68
2022/04/01 08:18:06;;;;;;;5.88;3.15;;;;;;;10.40;43.23;100405.84;4975178;28;20050;-68
2022/04/01 08:20:31;;;;;;;6.75;3.17;;;;;;;10.44;43.13;100403.75;4973570;28;20026;-67
2022/04/01 08:22:56;;;;;;;12.18;4.53;;;;;;;10.45;43.45;100408.97;4974742;28;20046;-68
2022/04/01 08:25:22;;;;;;;4.75;3.15;;;;;;;10.43;42.47;100404.72;4973604;28;20023;-68
2022/04/01 08:27:47;;;;;;;5.53;3.10;;;;;;;10.44;43.28;100411.78;4973656;28;20554;-67
2022/04/01 08:30:12;;;;;;;3.45;2.92;;;;;;;10.47;42.96;100416.84;4974898;28;20050;-68
2022/04/01 08:32:38;;;;;;;3.75;2.75;;;;;;;10.47;43.47;100417.69;4974596;28;20031;-68
2022/04/01 08:35:06;;;;;;;6.03;2.88;;;;;;;10.47;42.65;100417.69;4973615;28;20102;-68
2022/04/01 08:37:32;;;;;;;7.80;2.85;;;;;;;10.48;42.54;100429.25;4973484;28;20111;-67
2022/04/01 08:39:58;;;;;;;5.72;3.55;;;;;;;10.50;42.98;100427.28;4973464;28;20128;-68
2022/04/01 08:42:24;;;;;;;4.20;2.85;;;;;;;10.51;43.17;100437.00;4974542;28;20037;-68
2022/04/01 08:44:49;;;;;;;4.13;2.88;;;;;;;10.52;42.66;100436.03;4974873;28;20019;-68
2022/04/01 08:47:15;;;;;;;5.07;2.92;;;;;;;10.51;42.66;100437.00;4974611;28;20086;-68
2022/04/01 08:49:40;;;;;;;4.82;2.95;;;;;;;10.48;42.46;100440.81;4973165;28;20102;-68
2022/04/01 08:52:06;;;;;;;3.47;2.60;;;;;;;10.48;42.23;100453.34;4974291;28;20030;-68
2022/04/01 08:54:33;;;;;;;4.45;3.00;;;;;;;10.40;42.34;100453.19;4973196;28;20035;-68
2022/04/01 08:56:58;;;;;;;4.30;2.47;;;;;;;10.39;42.89;100452.34;4974646;28;20036;-68
2022/04/01 08:59:31;;;;;;;4.40;3.17;;;;;;;10.41;43.57;100460.25;4973397;28;20476;-68
2022/04/01 09:02:08;;;;;;;5.82;2.80;;;;;;;10.40;43.19;100459.41;4973423;28;20033;-67
2022/04/01 09:04:34;;;;;;;5.15;2.85;;;;;;;10.41;42.83;100463.75;4974417;28;20378;-68
2022/04/01 09:07:12;;;;;;;3.47;2.78;;;;;;;10.41;42.89;100466.44;4974550;28;20070;-68
2022/04/01 09:09:37;;;;;;;4.13;2.85;;;;;;;10.42;42.21;100489.56;4974269;28;20026;-68
2022/04/01 09:12:14;;;;;;;4.43;2.67;;;;;;;10.40;42.94;100479.97;4973282;28;20543;-66
2022/04/01 09:14:50;;;;;;;4.03;2.33;;;;;;;10.37;42.20;100473.06;4973194;28;20038;-69
2022/04/01 09:17:15;;;;;;;4.38;2.78;;;;;;;10.41;42.53;100489.69;4973261;28;20026;-68
2022/04/01 09:19:41;;;;;;;15.10;2.85;;;;;;;10.40;42.39;100488.00;4976297;28;20085;-68
2022/04/01 09:22:21;;;;;;;3.20;2.35;;;;;;;10.40;42.25;100490.69;4978364;28;20104;-68
2022/04/01 09:25:06;;;;;;;4.10;2.53;;;;;;;10.38;42.24;100492.66;4978022;28;20453;-67
2022/04/01 09:27:41;;;;;;;5.18;2.65;;;;;;;10.36;42.80;100494.59;4960464;28;20054;-68
2022/04/01 09:30:09;;;;;;;3.15;2.30;;;;;;;10.37;42.38;100488.28;4976695;28;20051;-67
2022/04/01 09:33:01;;;;;;;4.38;2.75;;;;;;;10.42;43.03;100488.69;4976935;28;20114;-68
2022/04/01 09:35:28;;;;;;;4.88;3.13;;;;;;;10.44;42.25;100503.63;4974051;28;20034;-68
2022/04/01 09:37:58;;;;;;;3.13;2.83;;;;;;;10.44;42.68;100502.81;4960339;28;20031;-68
2022/04/01 09:40:24;;;;;;;4.53;2.70;;;;;;;10.43;42.84;100511.81;4977883;28;20037;-68
2022/04/01 09:42:53;;;;;;;3.30;2.70;;;;;;;10.44;42.76;100509.00;4977638;28;20030;-68
2022/04/01 09:45:20;;;;;;;4.55;2.83;;;;;;;10.46;41.87;100517.75;4977721;28;20428;-68
2022/04/01 09:47:57;;;;;;;5.18;3.08;;;;;;;10.50;42.37;100518.31;4977715;28;20034;-68
2022/04/01 09:50:27;;;;;;;2.92;2.30;;;;;;;10.49;41.88;100513.97;4976296;28;20070;-68
2022/04/01 09:52:52;;;;;;;3.47;2.20;;;;;;;10.48;42.17;100509.56;4976069;28;20039;-67
2022/04/01 09:55:17;;;;;;;5.30;3.33;;;;;;;10.48;42.84;100515.78;4977522;28;20105;-68
2022/04/01 09:57:42;;;;;;;5.07;2.60;;;;;;;10.46;42.60;100519.59;4976149;28;20054;-68
2022/04/01 10:00:09;;;;;;;7.78;3.30;;;;;;;10.48;42.13;100522.97;4977159;28;20031;-68
2022/04/01 10:02:35;;;;;;;5.80;2.97;;;;;;;10.49;42.24;100544.28;4977423;28;20031;-68
2022/04/01 10:05:00;;;;;;;5.50;3.40;;;;;;;10.46;42.03;100539.19;4977368;28;20023;-68
2022/04/01 10:07:27;;;;;;;4.53;2.85;;;;;;;10.46;42.29;100543.69;4977234;28;20114;-68
2022/04/01 10:09:54;;;;;;;4.05;2.70;;;;;;;10.43;41.75;100541.28;4976067;28;20030;-67
2022/04/01 10:12:24;;;;;;;3.50;2.63;;;;;;;10.46;42.33;100549.91;4940541;29;20058;-68
2022/04/01 10:14:54;;;;;;;4.35;2.47;;;;;;;10.48;42.31;100542.56;4956626;29;20102;-68
2022/04/01 10:17:21;;;;;;;6.25;2.95;;;;;;;10.49;42.52;100546.09;4957756;28;20081;-68
2022/04/01 10:19:47;;;;;;;3.78;2.35;;;;;;;10.47;42.08;100548.88;4957666;28;20050;-68
2022/04/01 10:22:16;;;;;;;3.33;2.30;;;;;;;10.42;42.17;100547.59;4956440;29;20027;-67
2022/04/01 10:25:00;;;;;;;6.10;2.92;;;;;;;10.43;41.78;100560.88;4957635;28;20023;-68
2022/04/01 10:27:37;;;;;;;3.97;2.90;;;;;;;10.42;41.80;100555.63;4957478;29;20039;-68
2022/04/01 10:30:03;;;;;;;3.83;2.00;;;;;;;10.42;41.77;100555.63;4956062;28;20042;-68
2022/04/01 10:32:34;;;;;;;3.80;2.15;;;;;;;10.45;42.05;100555.38;4956374;29;20031;-68
2022/04/01 10:35:01;;;;;;;3.25;2.10;;;;;;;10.44;41.90;100561.72;4957323;28;20026;-68
2022/04/01 10:37:28;;;;;;;3.72;1.95;;;;;;;10.40;42.54;100560.28;4964518;28;20037;-68
2022/04/01 10:39:55;;;;;;;3.72;2.40;;;;;;;10.35;42.39;100559.84;4975361;28;20034;-67
2022/04/01 10:42:32;;;;;;;2.28;2.08;;;;;;;10.33;42.25;100559.13;4976883;28;20025;-68
2022/04/01 10:45:00;;;;;;;3.22;2.15;;;;;;;10.35;41.55;100563.38;4959158;28;20027;-68
2022/04/01 10:53:45;;;;;;;2.85;1.98;;;;;;;10.36;41.96;100569.56;4976276;28;20057;-68
2022/04/01 10:56:25;;;;;;;2.80;2.33;;;;;;;10.35;41.40;100567.88;4973243;28;20042;-68
2022/04/01 10:59:03;;;;;;;2.58;1.70;;;;;;;10.35;42.21;100579.44;4976036;28;20033;-68
2022/04/01 11:01:28;;;;;;;3.42;1.65;;;;;;;10.41;41.56;100583.41;4976302;28;20476;-68
2022/04/01 11:04:01;;;;;;;3.38;1.90;;;;;;;10.45;41.69;100574.13;4976558;28;20022;-64
2022/04/01 11:06:27;;;;;;;2.13;1.30;;;;;;;10.48;41.34;100579.19;4976280;28;20067;-65
2022/04/01 11:08:53;;;;;;;3.85;1.85;;;;;;;10.54;41.50;100581.34;4976394;28;20065;-67
2022/04/01 11:11:19;;;;;;;3.67;1.80;;;;;;;10.57;41.58;100578.41;4976196;28;20029;-67
2022/04/01 11:14:03;;;;;;;3.65;1.98;;;;;;;10.61;41.63;100585.16;4975995;28;20034;-67
2022/04/01 11:16:45;;;;;;;3.35;2.13;;;;;;;10.66;41.58;100587.44;4976117;28;20105;-67
2022/04/01 11:19:16;;;;;;;2.65;1.60;;;;;;;10.71;41.65;100583.38;4975871;28;20117;-67
2022/04/01 11:21:43;;;;;;;2.10;1.63;;;;;;;10.72;41.72;100586.91;4975751;28;20062;-66
2022/04/01 11:24:33;;;;;;;4.60;1.92;;;;;;;10.73;41.23;100585.91;4976084;28;20034;-68
2022/04/01 11:27:28;;;;;;;4.53;1.85;;;;;;;10.73;41.17;100594.81;4968500;28;20101;-67
2022/04/01 11:30:24;;;;;;;8.85;3.35;;;;;;;10.73;41.51;100597.47;4963137;28;20045;-68
2022/04/01 11:33:02;;;;;;;6.15;2.65;;;;;;;10.74;41.12;100596.50;4974559;28;20041;-68
2022/04/01 11:35:30;;;;;;;2.17;1.92;;;;;;;10.78;40.98;100602.41;4975819;28;20111;-69
2022/04/01 11:37:56;;;;;;;3.25;2.30;;;;;;;10.79;41.28;100604.97;4958043;28;20053;-68
2022/04/01 11:40:25;;;;;;;4.03;2.15;;;;;;;10.83;41.28;100601.03;4973816;28;20600;-67
2022/04/01 11:42:51;;;;;;;3.85;2.97;;;;;;;10.86;40.71;100611.47;4974253;28;20042;-68
2022/04/01 11:45:17;;;;;;;7.60;3.10;;;;;;;10.87;40.81;100601.59;4975678;28;20396;-68